Decoded Metar for EICK (CORK in IRELAND) (IATA:ORK) | Meteo·Mobile Aviation Weather
aviador You're here:

EICK Decoded Metar

CORK in IRELAND
Report Time2018-09-25 14:30:00
UTC Time2018-09-25 14:38:32
Flight Rules vfr VFR
Wind210° at 16 kt
W.Decomp.*RWY 25: 13.1 kt HW 9.2 kt LCW
RWY 17: 11.3 kt HW 11.3 kt RCW
W.Rank210° ranks 4
Current wind is above 210° avg. (10.4)
Visibility9999 m
Phenomena:N/A
Clouds:Few 021 Hf
Broken 042 Hf
Expected CloudBase > 2,000 ft AGL from Temp-Dew spread
Ceiling4,200 ft
Temp14°C (ISA -0)
Dew Point09°C (72% RH)
AAT8.0°C
QNH1032 hPa
Density Alt20 ft
Elevation502 ft
Report Wrong Elevation
Raw Report
METAR EICK 251430Z 21016KT 9999 FEW021 BKN042 14/09 Q1032 NOSIG=

Extra information for EICK:More info

Metar Taf Metar & Taf Last 4 Metars F.Rules Stats Wind Profile Meteogram Temp Stats Airport Information Weather charts Add Link Nearby VenuesMetar ALERT Operation Metar Decoded Social comments